ACA9 KPDX-CYVR
Flight info
| Callsign | ACA9 |
|---|---|
| Flight time | 0h 44m |
| Altitude | 30000 |
| Route | BTG J1 SEA DCT PAE GRIZZ9 |
| Aircraft | B772/H-SDE2E3FGHIJ5LORVWXY/LB1D1 |
Departure
| Time | 2026-05-08 04:43 |
|---|---|
| Airport | Portland International Airport (KPDX) |
Arrival
| Time | 2026-05-08 05:27 |
|---|---|
| Airport | Vancouver International Airport (CYVR) |
| Time | Latitude | Longitude | Altitude | Speed | Heading |
|---|---|---|---|---|---|
| 2026-05-08 04:08 | 45.59201 | -122.59705 | 36 ft | 0 kts | 133° |
| 2026-05-08 04:32 | 45.59208 | -122.59717 | 36 ft | 2 kts | 133° |
| 2026-05-08 04:32 | 45.59219 | -122.59732 | 36 ft | 2 kts | 133° |
| 2026-05-08 04:32 | 45.59226 | -122.59744 | 36 ft | 0 kts | 133° |
| 2026-05-08 04:32 | 45.59235 | -122.59758 | 36 ft | 2 kts | 117° |
| 2026-05-08 04:33 | 45.59240 | -122.59779 | 36 ft | 2 kts | 96° |
| 2026-05-08 04:33 | 45.59240 | -122.59799 | 36 ft | 2 kts | 77° |
| 2026-05-08 04:33 | 45.59234 | -122.59819 | 36 ft | 2 kts | 58° |
| 2026-05-08 04:33 | 45.59225 | -122.59836 | 36 ft | 2 kts | 39° |
| 2026-05-08 04:34 | 45.59219 | -122.59842 | 36 ft | 1 kts | 31° |
| 2026-05-08 04:34 | 45.59217 | -122.59843 | 36 ft | 0 kts | 31° |
| 2026-05-08 04:36 | 45.59219 | -122.59842 | 36 ft | 1 kts | 31° |
| 2026-05-08 04:36 | 45.59251 | -122.59814 | 36 ft | 8 kts | 31° |
| 2026-05-08 04:36 | 45.59307 | -122.59749 | 37 ft | 11 kts | 47° |
| 2026-05-08 04:37 | 45.59358 | -122.59648 | 38 ft | 13 kts | 65° |
| 2026-05-08 04:37 | 45.59336 | -122.59513 | 38 ft | 15 kts | 119° |
| 2026-05-08 04:37 | 45.59275 | -122.59359 | 35 ft | 19 kts | 119° |
| 2026-05-08 04:37 | 45.59205 | -122.59179 | 34 ft | 21 kts | 118° |
| 2026-05-08 04:38 | 45.59128 | -122.58981 | 34 ft | 23 kts | 120° |
| 2026-05-08 04:38 | 45.59056 | -122.58802 | 34 ft | 20 kts | 119° |
| 2026-05-08 04:38 | 45.58984 | -122.58614 | 34 ft | 22 kts | 118° |
| 2026-05-08 04:38 | 45.58907 | -122.58412 | 34 ft | 23 kts | 118° |
| 2026-05-08 04:39 | 45.58836 | -122.58229 | 34 ft | 18 kts | 119° |
| 2026-05-08 04:39 | 45.58769 | -122.58064 | 34 ft | 20 kts | 119° |
| 2026-05-08 04:39 | 45.58698 | -122.57880 | 34 ft | 22 kts | 118° |
| 2026-05-08 04:39 | 45.58620 | -122.57680 | 34 ft | 23 kts | 118° |
| 2026-05-08 04:40 | 45.58537 | -122.57466 | 34 ft | 25 kts | 119° |
| 2026-05-08 04:40 | 45.58460 | -122.57270 | 34 ft | 20 kts | 118° |
| 2026-05-08 04:40 | 45.58390 | -122.57087 | 34 ft | 21 kts | 118° |
| 2026-05-08 04:40 | 45.58316 | -122.56895 | 34 ft | 20 kts | 118° |
| 2026-05-08 04:41 | 45.58279 | -122.56753 | 34 ft | 14 kts | 81° |
| 2026-05-08 04:41 | 45.58362 | -122.56716 | 34 ft | 16 kts | 320° |
| 2026-05-08 04:41 | 45.58404 | -122.56803 | 34 ft | 0 kts | 297° |
| 2026-05-08 04:42 | 45.58451 | -122.56929 | 34 ft | 48 kts | 298° |
| 2026-05-08 04:42 | 45.58769 | -122.57735 | 34 ft | 135 kts | 298° |
| 2026-05-08 04:43 | 45.59318 | -122.59137 | 318 ft | 176 kts | 299° |
| 2026-05-08 04:43 | 45.59905 | -122.60684 | 1252 ft | 184 kts | 295° |
| 2026-05-08 04:43 | 45.60408 | -122.62264 | 2048 ft | 181 kts | 296° |
| 2026-05-08 04:43 | 45.61000 | -122.63947 | 2510 ft | 197 kts | 298° |
| 2026-05-08 04:44 | 45.61654 | -122.65741 | 3004 ft | 215 kts | 298° |
| 2026-05-08 04:44 | 45.62385 | -122.67687 | 3546 ft | 231 kts | 304° |
| 2026-05-08 04:44 | 45.63623 | -122.69211 | 4104 ft | 244 kts | 336° |
| 2026-05-08 04:44 | 45.65334 | -122.69492 | 4608 ft | 262 kts | 11° |
| 2026-05-08 04:45 | 45.66987 | -122.68293 | 5282 ft | 273 kts | 36° |
| 2026-05-08 04:45 | 45.68487 | -122.66584 | 6025 ft | 280 kts | 37° |
| 2026-05-08 04:45 | 45.69989 | -122.64817 | 6790 ft | 285 kts | 37° |
| 2026-05-08 04:45 | 45.71501 | -122.63032 | 7659 ft | 286 kts | 37° |
| 2026-05-08 04:46 | 45.73043 | -122.61210 | 8413 ft | 290 kts | 37° |
| 2026-05-08 04:46 | 45.74712 | -122.59581 | 9142 ft | 291 kts | 20° |
| 2026-05-08 04:46 | 45.76656 | -122.58868 | 9855 ft | 291 kts | 5° |
| 2026-05-08 04:46 | 45.78676 | -122.58501 | 10519 ft | 298 kts | 3° |
| 2026-05-08 04:47 | 45.80757 | -122.58176 | 10967 ft | 314 kts | 3° |
| 2026-05-08 04:47 | 45.82990 | -122.57824 | 11416 ft | 330 kts | 3° |
| 2026-05-08 04:47 | 45.85334 | -122.57446 | 11948 ft | 345 kts | 3° |
| 2026-05-08 04:47 | 45.87781 | -122.57050 | 12444 ft | 361 kts | 4° |
| 2026-05-08 04:48 | 45.90295 | -122.56641 | 13007 ft | 372 kts | 4° |
| 2026-05-08 04:48 | 45.92878 | -122.56219 | 13767 ft | 377 kts | 3° |
| 2026-05-08 04:48 | 45.95493 | -122.55791 | 14582 ft | 381 kts | 3° |
| 2026-05-08 04:48 | 45.98140 | -122.55359 | 15382 ft | 386 kts | 3° |
| 2026-05-08 04:49 | 46.00785 | -122.54926 | 16151 ft | 391 kts | 3° |
| 2026-05-08 04:49 | 46.03512 | -122.54481 | 16929 ft | 396 kts | 3° |
| 2026-05-08 04:49 | 46.06258 | -122.54031 | 17673 ft | 402 kts | 3° |
| 2026-05-08 04:49 | 46.09042 | -122.53574 | 18425 ft | 406 kts | 3° |
| 2026-05-08 04:50 | 46.11840 | -122.53116 | 19143 ft | 411 kts | 3° |
| 2026-05-08 04:50 | 46.14714 | -122.52644 | 19881 ft | 415 kts | 3° |
| 2026-05-08 04:50 | 46.17569 | -122.52174 | 20568 ft | 420 kts | 2° |
| 2026-05-08 04:50 | 46.20496 | -122.51693 | 21270 ft | 425 kts | 2° |
| 2026-05-08 04:51 | 46.23430 | -122.51210 | 21943 ft | 429 kts | 2° |
| 2026-05-08 04:51 | 46.26415 | -122.50718 | 22615 ft | 433 kts | 2° |
| 2026-05-08 04:51 | 46.29406 | -122.50224 | 23262 ft | 438 kts | 2° |
| 2026-05-08 04:51 | 46.32455 | -122.49721 | 23925 ft | 442 kts | 2° |
| 2026-05-08 04:52 | 46.35476 | -122.49220 | 24627 ft | 444 kts | 2° |
| 2026-05-08 04:52 | 46.38586 | -122.48705 | 25311 ft | 447 kts | 2° |
| 2026-05-08 04:52 | 46.41654 | -122.48196 | 25931 ft | 451 kts | 2° |
| 2026-05-08 04:52 | 46.44804 | -122.47674 | 26557 ft | 455 kts | 2° |
| 2026-05-08 04:53 | 46.47949 | -122.47151 | 27120 ft | 459 kts | 2° |
| 2026-05-08 04:53 | 46.51105 | -122.46626 | 27698 ft | 463 kts | 2° |
| 2026-05-08 04:53 | 46.54314 | -122.46091 | 28299 ft | 466 kts | 2° |
| 2026-05-08 04:53 | 46.57537 | -122.45554 | 28879 ft | 469 kts | 2° |
| 2026-05-08 04:54 | 46.60787 | -122.45010 | 29421 ft | 473 kts | 2° |
| 2026-05-08 04:54 | 46.64040 | -122.44467 | 29910 ft | 477 kts | 2° |
| 2026-05-08 04:54 | 46.67374 | -122.43910 | 30080 ft | 486 kts | 2° |
| 2026-05-08 04:54 | 46.70766 | -122.43343 | 30082 ft | 494 kts | 2° |
| 2026-05-08 04:55 | 46.77647 | -122.42185 | 30084 ft | 494 kts | 2° |
| 2026-05-08 04:55 | 46.84440 | -122.41039 | 30080 ft | 494 kts | 2° |
| 2026-05-08 04:56 | 46.91309 | -122.39879 | 30083 ft | 494 kts | 2° |
| 2026-05-08 04:56 | 46.98155 | -122.38720 | 30088 ft | 494 kts | 2° |
| 2026-05-08 04:57 | 47.04993 | -122.37559 | 30089 ft | 495 kts | 2° |
| 2026-05-08 04:57 | 47.11817 | -122.36398 | 30092 ft | 494 kts | 2° |
| 2026-05-08 04:58 | 47.18655 | -122.35232 | 30091 ft | 494 kts | 2° |
| 2026-05-08 04:58 | 47.25462 | -122.34068 | 30084 ft | 495 kts | 3° |
| 2026-05-08 04:59 | 47.32333 | -122.32890 | 30083 ft | 495 kts | 3° |
| 2026-05-08 04:59 | 47.39166 | -122.32844 | 30084 ft | 487 kts | 348° |
| 2026-05-08 05:00 | 47.45603 | -122.35349 | 30082 ft | 483 kts | 342° |
| 2026-05-08 05:00 | 47.52379 | -122.36347 | 30076 ft | 493 kts | 359° |
| 2026-05-08 05:01 | 47.59210 | -122.35037 | 30079 ft | 498 kts | 5° |
| 2026-05-08 05:01 | 47.66012 | -122.33537 | 29939 ft | 488 kts | 4° |
| 2026-05-08 05:02 | 47.69340 | -122.32800 | 29263 ft | 484 kts | 4° |
| 2026-05-08 05:02 | 47.72669 | -122.32063 | 28643 ft | 478 kts | 4° |
| 2026-05-08 05:02 | 47.75899 | -122.31347 | 28058 ft | 473 kts | 5° |
| 2026-05-08 05:02 | 47.79135 | -122.30630 | 27455 ft | 468 kts | 5° |
| 2026-05-08 05:03 | 47.82337 | -122.29919 | 26847 ft | 463 kts | 5° |
| 2026-05-08 05:03 | 47.85494 | -122.29218 | 26244 ft | 458 kts | 5° |
| 2026-05-08 05:03 | 47.88623 | -122.28526 | 25631 ft | 453 kts | 4° |
| 2026-05-08 05:03 | 47.91697 | -122.28224 | 25032 ft | 444 kts | 355° |
| 2026-05-08 05:04 | 47.94743 | -122.28667 | 24433 ft | 435 kts | 347° |
| 2026-05-08 05:04 | 47.97689 | -122.29467 | 23854 ft | 430 kts | 346° |
| 2026-05-08 05:04 | 48.00591 | -122.30290 | 23262 ft | 426 kts | 346° |
| 2026-05-08 05:04 | 48.03513 | -122.31126 | 22666 ft | 422 kts | 346° |
| 2026-05-08 05:05 | 48.06369 | -122.31947 | 22075 ft | 418 kts | 346° |
| 2026-05-08 05:05 | 48.09187 | -122.32758 | 21488 ft | 415 kts | 346° |
| 2026-05-08 05:05 | 48.11999 | -122.33572 | 20891 ft | 412 kts | 346° |
| 2026-05-08 05:05 | 48.14811 | -122.34386 | 20309 ft | 409 kts | 346° |
| 2026-05-08 05:06 | 48.17585 | -122.35191 | 19724 ft | 406 kts | 346° |
| 2026-05-08 05:06 | 48.20354 | -122.35997 | 19122 ft | 404 kts | 346° |
| 2026-05-08 05:06 | 48.23082 | -122.36791 | 18506 ft | 402 kts | 346° |
| 2026-05-08 05:06 | 48.25812 | -122.37587 | 17920 ft | 399 kts | 346° |
| 2026-05-08 05:07 | 48.28491 | -122.38367 | 17804 ft | 383 kts | 346° |
| 2026-05-08 05:07 | 48.31044 | -122.39305 | 17817 ft | 385 kts | 338° |
| 2026-05-08 05:07 | 48.33528 | -122.40976 | 17815 ft | 392 kts | 328° |
| 2026-05-08 05:07 | 48.35749 | -122.43323 | 17803 ft | 390 kts | 317° |
| 2026-05-08 05:08 | 48.37745 | -122.46027 | 17799 ft | 389 kts | 315° |
| 2026-05-08 05:08 | 48.39742 | -122.48794 | 17805 ft | 389 kts | 315° |
| 2026-05-08 05:08 | 48.41741 | -122.51569 | 17801 ft | 389 kts | 315° |
| 2026-05-08 05:08 | 48.43732 | -122.54335 | 17798 ft | 390 kts | 315° |
| 2026-05-08 05:09 | 48.45720 | -122.57101 | 17780 ft | 389 kts | 315° |
| 2026-05-08 05:09 | 48.47683 | -122.59835 | 17780 ft | 390 kts | 315° |
| 2026-05-08 05:09 | 48.49694 | -122.62641 | 17777 ft | 391 kts | 315° |
| 2026-05-08 05:09 | 48.51687 | -122.65423 | 17685 ft | 392 kts | 314° |
| 2026-05-08 05:10 | 48.53672 | -122.68197 | 17264 ft | 393 kts | 315° |
| 2026-05-08 05:10 | 48.57648 | -122.73762 | 16085 ft | 388 kts | 315° |
| 2026-05-08 05:10 | 48.59600 | -122.76499 | 15492 ft | 385 kts | 315° |
| 2026-05-08 05:11 | 48.61549 | -122.79234 | 14895 ft | 382 kts | 315° |
| 2026-05-08 05:11 | 48.63477 | -122.81943 | 14307 ft | 380 kts | 315° |
| 2026-05-08 05:11 | 48.65407 | -122.84658 | 13710 ft | 377 kts | 315° |
| 2026-05-08 05:11 | 48.67308 | -122.87335 | 13130 ft | 375 kts | 315° |
| 2026-05-08 05:12 | 48.69220 | -122.90032 | 12534 ft | 373 kts | 315° |
| 2026-05-08 05:12 | 48.71091 | -122.92672 | 11950 ft | 370 kts | 316° |
| 2026-05-08 05:12 | 48.72975 | -122.95335 | 11350 ft | 368 kts | 316° |
| 2026-05-08 05:12 | 48.74818 | -122.97941 | 10841 ft | 363 kts | 316° |
| 2026-05-08 05:13 | 48.76627 | -123.00502 | 10758 ft | 346 kts | 316° |
| 2026-05-08 05:13 | 48.78338 | -123.02925 | 10671 ft | 331 kts | 316° |
| 2026-05-08 05:13 | 48.80007 | -123.05292 | 10552 ft | 319 kts | 316° |
| 2026-05-08 05:13 | 48.81599 | -123.07552 | 10420 ft | 309 kts | 316° |
| 2026-05-08 05:14 | 48.83141 | -123.09743 | 10279 ft | 299 kts | 316° |
| 2026-05-08 05:14 | 48.84632 | -123.11862 | 10136 ft | 291 kts | 316° |
| 2026-05-08 05:14 | 48.86073 | -123.13914 | 9952 ft | 284 kts | 316° |
| 2026-05-08 05:14 | 48.87510 | -123.15962 | 9606 ft | 285 kts | 316° |
| 2026-05-08 05:15 | 48.88964 | -123.18037 | 9241 ft | 285 kts | 316° |
| 2026-05-08 05:15 | 48.90410 | -123.20101 | 8904 ft | 284 kts | 317° |
| 2026-05-08 05:15 | 48.91838 | -123.22141 | 8598 ft | 283 kts | 317° |
| 2026-05-08 05:15 | 48.93280 | -123.24204 | 8269 ft | 282 kts | 317° |
| 2026-05-08 05:16 | 48.94690 | -123.26221 | 7945 ft | 281 kts | 317° |
| 2026-05-08 05:16 | 48.96117 | -123.28265 | 7617 ft | 280 kts | 317° |
| 2026-05-08 05:16 | 48.97519 | -123.30274 | 7325 ft | 278 kts | 317° |
| 2026-05-08 05:16 | 48.98921 | -123.32285 | 7015 ft | 277 kts | 317° |
| 2026-05-08 05:17 | 49.00320 | -123.34294 | 6700 ft | 276 kts | 317° |
| 2026-05-08 05:17 | 49.01716 | -123.36301 | 6395 ft | 274 kts | 317° |
| 2026-05-08 05:17 | 49.03101 | -123.38292 | 6110 ft | 273 kts | 317° |
| 2026-05-08 05:17 | 49.04469 | -123.40260 | 5800 ft | 272 kts | 317° |
| 2026-05-08 05:18 | 49.05838 | -123.42233 | 5536 ft | 268 kts | 317° |
| 2026-05-08 05:18 | 49.07163 | -123.44143 | 5412 ft | 260 kts | 317° |
| 2026-05-08 05:18 | 49.08471 | -123.46030 | 5158 ft | 259 kts | 317° |
| 2026-05-08 05:18 | 49.09786 | -123.47927 | 4877 ft | 258 kts | 317° |
| 2026-05-08 05:19 | 49.11080 | -123.49796 | 4599 ft | 258 kts | 317° |
| 2026-05-08 05:19 | 49.12375 | -123.51685 | 4326 ft | 257 kts | 314° |
| 2026-05-08 05:19 | 49.13292 | -123.54024 | 4028 ft | 258 kts | 289° |
| 2026-05-08 05:19 | 49.13902 | -123.56572 | 3758 ft | 255 kts | 302° |
| 2026-05-08 05:20 | 49.15128 | -123.58454 | 3430 ft | 254 kts | 332° |
| 2026-05-08 05:20 | 49.16788 | -123.59170 | 3124 ft | 251 kts | 0° |
| 2026-05-08 05:20 | 49.18520 | -123.59041 | 2984 ft | 245 kts | 5° |
| 2026-05-08 05:20 | 49.20167 | -123.58640 | 2959 ft | 232 kts | 24° |
| 2026-05-08 05:21 | 49.21388 | -123.57223 | 2951 ft | 219 kts | 57° |
| 2026-05-08 05:21 | 49.22094 | -123.55232 | 2965 ft | 206 kts | 65° |
| 2026-05-08 05:21 | 49.22687 | -123.53329 | 2967 ft | 193 kts | 66° |
| 2026-05-08 05:21 | 49.23246 | -123.51527 | 2966 ft | 180 kts | 68° |
| 2026-05-08 05:22 | 49.23666 | -123.49786 | 2968 ft | 175 kts | 80° |
| 2026-05-08 05:22 | 49.23694 | -123.47946 | 2973 ft | 172 kts | 97° |
| 2026-05-08 05:22 | 49.23505 | -123.46134 | 2976 ft | 172 kts | 101° |
| 2026-05-08 05:22 | 49.23285 | -123.44331 | 2972 ft | 172 kts | 101° |
| 2026-05-08 05:23 | 49.23075 | -123.42553 | 2945 ft | 168 kts | 100° |
| 2026-05-08 05:23 | 49.22879 | -123.40859 | 2725 ft | 157 kts | 100° |
| 2026-05-08 05:23 | 49.22695 | -123.39239 | 2530 ft | 152 kts | 99° |
| 2026-05-08 05:23 | 49.22520 | -123.37691 | 2340 ft | 145 kts | 99° |
| 2026-05-08 05:24 | 49.22356 | -123.36238 | 2164 ft | 135 kts | 99° |
| 2026-05-08 05:24 | 49.22196 | -123.34823 | 1989 ft | 133 kts | 100° |
| 2026-05-08 05:24 | 49.22041 | -123.33422 | 1794 ft | 133 kts | 100° |
| 2026-05-08 05:24 | 49.21886 | -123.32049 | 1597 ft | 132 kts | 101° |
| 2026-05-08 05:25 | 49.21725 | -123.30659 | 1400 ft | 132 kts | 101° |
| 2026-05-08 05:25 | 49.21572 | -123.29273 | 1231 ft | 132 kts | 101° |
| 2026-05-08 05:25 | 49.21416 | -123.27894 | 1059 ft | 131 kts | 101° |
| 2026-05-08 05:25 | 49.21256 | -123.26530 | 875 ft | 130 kts | 101° |
| 2026-05-08 05:26 | 49.21104 | -123.25159 | 698 ft | 130 kts | 101° |
| 2026-05-08 05:26 | 49.20942 | -123.23810 | 540 ft | 131 kts | 101° |
| 2026-05-08 05:26 | 49.20795 | -123.22440 | 361 ft | 129 kts | 100° |
| 2026-05-08 05:26 | 49.20648 | -123.21099 | 200 ft | 130 kts | 101° |
| 2026-05-08 05:27 | 49.20484 | -123.19733 | 33 ft | 127 kts | 102° |
| 2026-05-08 05:27 | 49.20345 | -123.18585 | 25 ft | 92 kts | 99° |
| 2026-05-08 05:27 | 49.20254 | -123.17808 | 25 ft | 57 kts | 100° |
| 2026-05-08 05:27 | 49.20205 | -123.17373 | 25 ft | 34 kts | 99° |
| 2026-05-08 05:28 | 49.20158 | -123.17017 | 22 ft | 33 kts | 115° |
| 2026-05-08 05:28 | 49.20033 | -123.16760 | 22 ft | 20 kts | 128° |
| 2026-05-08 05:28 | 49.19970 | -123.16642 | 22 ft | 13 kts | 129° |
| 2026-05-08 05:28 | 49.19922 | -123.16645 | 22 ft | 11 kts | 265° |
| 2026-05-08 05:29 | 49.19927 | -123.16782 | 22 ft | 14 kts | 279° |
| 2026-05-08 05:29 | 49.19946 | -123.16950 | 22 ft | 17 kts | 280° |
| 2026-05-08 05:29 | 49.19969 | -123.17145 | 22 ft | 19 kts | 280° |
| 2026-05-08 05:29 | 49.19994 | -123.17367 | 22 ft | 22 kts | 279° |
| 2026-05-08 05:30 | 49.20021 | -123.17613 | 22 ft | 24 kts | 281° |
| 2026-05-08 05:30 | 49.20054 | -123.17881 | 23 ft | 26 kts | 279° |
| 2026-05-08 05:30 | 49.20084 | -123.18157 | 24 ft | 27 kts | 280° |
| 2026-05-08 05:30 | 49.20114 | -123.18416 | 24 ft | 17 kts | 277° |
| 2026-05-08 05:31 | 49.20029 | -123.18520 | 22 ft | 16 kts | 188° |
| 2026-05-08 05:31 | 49.19918 | -123.18546 | 22 ft | 15 kts | 190° |
| 2026-05-08 05:31 | 49.19821 | -123.18566 | 22 ft | 12 kts | 172° |
| 2026-05-08 05:31 | 49.19773 | -123.18481 | 22 ft | 9 kts | 109° |
| 2026-05-08 05:32 | 49.19762 | -123.18395 | 23 ft | 7 kts | 99° |
| 2026-05-08 05:32 | 49.19755 | -123.18327 | 23 ft | 5 kts | 101° |
| 2026-05-08 05:32 | 49.19747 | -123.18267 | 24 ft | 5 kts | 102° |
| 2026-05-08 05:32 | 49.19736 | -123.18205 | 24 ft | 6 kts | 112° |
| 2026-05-08 05:33 | 49.19714 | -123.18147 | 24 ft | 6 kts | 126° |
| 2026-05-08 05:33 | 49.19695 | -123.18095 | 25 ft | 4 kts | 97° |
| 2026-05-08 05:33 | 49.19704 | -123.18049 | 24 ft | 4 kts | 64° |
| 2026-05-08 05:33 | 49.19726 | -123.18014 | 24 ft | 4 kts | 40° |
| 2026-05-08 05:34 | 49.19737 | -123.17999 | 24 ft | 0 kts | 40° |